CheckWX is a tool to help pilots better visualize weather data.  It is not intended as a substitute for an official pre-flight weather briefing.

16:10:23 UTC

KICT METAR
Wichita Dwight D Eisenhower National Airport
Wichita, Kansas, USA
Current

17 mins ago

KICT 171553Z 19014KT 10SM FEW250 16/04 A2996 RMK AO2 SLP145 T01610039
Observed
Oct-17 @ 15:53 UTC
Wind
  • 190° at 14 KTS
Visibility
10 SM
Flight Rules
VFR
Cloud Levels
  • Few at 25,000' AGL
Temperature
16°C / 61°F
Dewpoint
C / 39°F
Humidity
45%
Altimeter
29.96" Hg
Pressure
1014.52 hPa
Previous

1 hour ago

KICT 171453Z 19013G21KT 10SM FEW250 13/04 A2998 RMK AO2 SLP151 T01330044 58001
Observed
Oct-17 @ 14:53 UTC
Wind
  • 190° at 13 KTS
  • Gusting to 21 KTS
Visibility
10 SM
Flight Rules
VFR
Cloud Levels
  • Few at 25,000' AGL
Temperature
13°C / 55°F
Dewpoint
C / 39°F
Humidity
55%
Altimeter
29.98" Hg
Pressure
1015.22 hPa
Previous

2 hours ago

KICT 171353Z 18010KT 10SM FEW250 09/04 A2999 RMK AO2 SLP155 T00890044
Observed
Oct-17 @ 13:53 UTC
Wind
  • 180° at 10 KTS
Visibility
10 SM
Flight Rules
VFR
Cloud Levels
  • Few at 25,000' AGL
Temperature
C / 48°F
Dewpoint
C / 39°F
Humidity
71%
Altimeter
29.99" Hg
Pressure
1015.62 hPa